Terminal Aerodrome Forecast
Issued by NWS

Home | Current Version | Previous Version | Text Only | Print | Product List | Glossary On
Versions: 1 2 3 4 5 6 7 8 9 10 11 12 13
000
FTUS45 KRIW 272300
TAFRKS
TAF
KRKS 272331Z 2800/2824 25012G18KT P6SM FEW120 BKN200 WS015/27035KT
     FM281900 24014G20KT P6SM SKC WS018/26035KT=

USA.gov is the U.S. government's official web portal to all federal, state and local government web resources and services.